createdAt,value
2023-03-06T00:02:41.318Z,95677.47
2023-03-06T00:05:30.794Z,95683.06
2023-03-06T00:08:19.436Z,95683.28
2023-03-06T00:11:08.332Z,95676.25
2023-03-06T00:13:56.920Z,95681.22
2023-03-06T00:16:47.732Z,95676.09
2023-03-06T00:19:36.320Z,95663.53
2023-03-06T00:22:25.924Z,95662.13
2023-03-06T00:25:18.593Z,95666.03
2023-03-06T00:28:07.518Z,95665.63
2023-03-06T00:30:57.022Z,95653.66
2023-03-06T00:33:46.956Z,95660.69
2023-03-06T00:36:36.362Z,95661.50
2023-03-06T00:39:25.009Z,95656.78
2023-03-06T00:42:15.399Z,95658.84
2023-03-06T00:45:04.581Z,95646.91
2023-03-06T00:47:54.075Z,95647.53
2023-03-06T00:50:44.066Z,95632.72
2023-03-06T00:53:32.677Z,95636.22
2023-03-06T00:56:21.776Z,95629.63
2023-03-06T00:59:10.440Z,95593.91
2023-03-06T01:01:59.557Z,95583.22
2023-03-06T01:04:49.364Z,95615.19
2023-03-06T01:07:40.180Z,95603.91
2023-03-06T01:10:29.687Z,95608.84
2023-03-06T01:13:18.487Z,95596.94
2023-03-06T01:16:11.341Z,95598.19
2023-03-06T01:19:00.505Z,95592.00
2023-03-06T01:21:51.515Z,95581.91
2023-03-06T01:24:41.590Z,95583.38
2023-03-06T01:27:30.780Z,95579.06
2023-03-06T01:30:19.857Z,95575.56
2023-03-06T01:33:08.901Z,95579.69
2023-03-06T01:35:57.548Z,95576.38
2023-03-06T01:38:47.049Z,95564.28
2023-03-06T01:41:38.283Z,95553.72
2023-03-06T01:44:28.160Z,95547.38
2023-03-06T01:47:16.745Z,95553.91
2023-03-06T01:50:09.264Z,95552.06
2023-03-06T01:53:00.684Z,95550.19
2023-03-06T01:55:50.481Z,95540.53
2023-03-06T01:58:43.621Z,95545.69
2023-03-06T02:01:34.283Z,95534.59
2023-03-06T02:04:23.015Z,95532.78
2023-03-06T02:07:15.665Z,95528.72
2023-03-06T02:10:05.476Z,95525.41
2023-03-06T02:12:55.527Z,95520.28
2023-03-06T02:15:45.561Z,95513.31
2023-03-06T02:18:35.753Z,95518.44
2023-03-06T02:21:26.622Z,95504.94
2023-03-06T02:24:36.461Z,95505.91
2023-03-06T02:27:28.241Z,95498.28
2023-03-06T02:30:19.658Z,95497.88
2023-03-06T02:33:09.235Z,95493.56
2023-03-06T02:36:00.721Z,95494.59
2023-03-06T02:38:52.753Z,95490.75
2023-03-06T02:41:44.088Z,95490.28
2023-03-06T02:44:36.020Z,95482.69
2023-03-06T02:47:25.595Z,95490.91
2023-03-06T02:50:14.278Z,95483.50
2023-03-06T02:53:03.605Z,95484.69
2023-03-06T02:55:53.378Z,95478.31
2023-03-06T02:58:43.021Z,95472.13
2023-03-06T03:01:33.403Z,95475.22
2023-03-06T03:04:25.466Z,95467.19
2023-03-06T03:07:14.507Z,95465.31
2023-03-06T03:10:05.512Z,95467.78
2023-03-06T03:12:54.528Z,95459.97
2023-03-06T03:15:45.815Z,95458.72
2023-03-06T03:18:36.412Z,95462.44
2023-03-06T03:21:26.220Z,95461.63
2023-03-06T03:24:17.015Z,95460.78
2023-03-06T03:27:06.537Z,95447.84
2023-03-06T03:29:58.690Z,95453.16
2023-03-06T03:32:48.377Z,95447.44
2023-03-06T03:35:38.966Z,95447.44
2023-03-06T03:38:29.122Z,95447.84
2023-03-06T03:41:17.969Z,95449.31
2023-03-06T03:44:08.185Z,95442.56
2023-03-06T03:46:57.020Z,95441.13
2023-03-06T03:49:47.462Z,95433.91
2023-03-06T03:52:37.673Z,95437.41
2023-03-06T03:55:27.206Z,95422.19
2023-03-06T03:58:15.960Z,95425.13
2023-03-06T04:01:06.205Z,95417.13
2023-03-06T04:03:54.980Z,95413.59
2023-03-06T04:06:44.870Z,95415.69
2023-03-06T04:09:35.758Z,95406.66
2023-03-06T04:12:26.277Z,95412.41
2023-03-06T04:15:15.079Z,95404.38
2023-03-06T04:18:05.067Z,95408.28
2023-03-06T04:20:54.717Z,95399.91
2023-03-06T04:23:43.547Z,95403.75
2023-03-06T04:26:33.550Z,95410.59
2023-03-06T04:29:23.073Z,95403.81
2023-03-06T04:32:12.025Z,95389.47
2023-03-06T04:35:02.477Z,95399.22
2023-03-06T04:37:56.929Z,95397.78
2023-03-06T04:40:49.599Z,95395.94
2023-03-06T04:43:40.033Z,95391.84
2023-03-06T04:46:28.706Z,95387.34
2023-03-06T04:49:18.443Z,95383.25
2023-03-06T04:52:09.017Z,95378.13
2023-03-06T04:54:57.679Z,95358.63
2023-03-06T04:57:48.444Z,95370.09
2023-03-06T05:00:38.919Z,95374.22
2023-03-06T05:03:28.891Z,95368.84
2023-03-06T05:06:17.493Z,95374.41
2023-03-06T05:09:07.009Z,95367.66
2023-03-06T05:11:55.786Z,95353.50
2023-03-06T05:14:47.123Z,95364.09
2023-03-06T05:17:38.514Z,95360.03
2023-03-06T05:20:30.489Z,95366.19
2023-03-06T05:23:20.442Z,95365.38
2023-03-06T05:26:09.899Z,95361.25
2023-03-06T05:29:01.653Z,95358.03
2023-03-06T05:31:50.452Z,95364.16
2023-03-06T05:34:42.359Z,95370.53
2023-03-06T05:37:31.169Z,95361.53
2023-03-06T05:40:21.017Z,95355.84
2023-03-06T05:43:11.580Z,95344.16
2023-03-06T05:46:04.062Z,95367.31
2023-03-06T05:48:55.705Z,95368.75
2023-03-06T05:51:45.649Z,95353.81
2023-03-06T05:54:35.491Z,95366.16
2023-03-06T05:57:25.720Z,95361.88
2023-03-06T06:00:17.096Z,95362.53
2023-03-06T06:03:07.612Z,95367.19
2023-03-06T06:05:56.315Z,95368.66
2023-03-06T06:08:47.941Z,95371.69
2023-03-06T06:11:36.531Z,95362.03
2023-03-06T06:14:25.716Z,95365.75
2023-03-06T06:17:14.318Z,95371.09
2023-03-06T06:20:04.018Z,95368.22
2023-03-06T06:22:52.741Z,95362.31
2023-03-06T06:25:43.839Z,95360.81
2023-03-06T06:28:33.384Z,95362.00
2023-03-06T06:31:22.525Z,95366.09
2023-03-06T06:34:12.089Z,95367.50
2023-03-06T06:37:02.984Z,95350.06
2023-03-06T06:39:51.981Z,95367.88
2023-03-06T06:42:42.555Z,95361.28
2023-03-06T06:45:31.169Z,95357.75
2023-03-06T06:48:20.332Z,95369.44
2023-03-06T06:51:09.039Z,95366.56
2023-03-06T06:53:58.306Z,95371.50
2023-03-06T06:56:46.962Z,95371.84
2023-03-06T06:59:36.996Z,95374.31
2023-03-06T07:02:26.321Z,95375.75
2023-03-06T07:05:15.103Z,95371.63
2023-03-06T07:08:04.435Z,95369.94
2023-03-06T07:10:53.235Z,95372.41
2023-03-06T07:13:41.968Z,95375.94
2023-03-06T07:16:32.424Z,95383.53
2023-03-06T07:19:21.035Z,95375.13
2023-03-06T07:22:10.619Z,95373.13
2023-03-06T07:24:59.238Z,95365.91
2023-03-06T07:27:53.641Z,95379.44
2023-03-06T07:30:43.693Z,95372.03
2023-03-06T07:33:33.683Z,95376.72
2023-03-06T07:36:22.555Z,95376.53
2023-03-06T07:39:12.230Z,95370.41
2023-03-06T07:42:01.019Z,95380.06
2023-03-06T07:44:49.779Z,95374.47
2023-03-06T07:47:38.402Z,95384.16
2023-03-06T07:50:29.932Z,95381.88
2023-03-06T07:53:18.514Z,95384.88
2023-03-06T07:56:09.487Z,95386.00
2023-03-06T07:58:58.326Z,95382.44
2023-03-06T08:01:47.768Z,95389.81
2023-03-06T08:04:36.443Z,95392.22
2023-03-06T08:07:26.414Z,95395.06
2023-03-06T08:10:16.787Z,95393.56
2023-03-06T08:13:05.965Z,95399.56
2023-03-06T08:15:54.748Z,95399.38
2023-03-06T08:18:46.074Z,95395.91
2023-03-06T08:21:17.171Z,95401.88
2023-03-06T08:23:47.885Z,95409.03
2023-03-06T08:26:18.241Z,95406.13
2023-03-06T08:28:47.630Z,95410.44
2023-03-06T08:31:26.207Z,95397.94
2023-03-06T08:33:56.072Z,95415.78
2023-03-06T08:36:24.930Z,95416.00
2023-03-06T08:38:55.169Z,95419.50
2023-03-06T08:41:24.093Z,95421.56
2023-03-06T08:43:54.526Z,95416.84
2023-03-06T08:46:25.487Z,95424.03
2023-03-06T08:48:55.007Z,95416.38
2023-03-06T08:51:23.804Z,95418.16
2023-03-06T08:53:54.174Z,95412.66
2023-03-06T08:56:25.420Z,95411.31
2023-03-06T08:58:55.220Z,95416.16
2023-03-06T09:01:26.287Z,95419.81
2023-03-06T09:03:55.931Z,95425.56
2023-03-06T09:06:26.641Z,95424.13
2023-03-06T09:08:56.724Z,95419.97
2023-03-06T09:11:27.577Z,95422.41
2023-03-06T09:13:56.521Z,95418.47
2023-03-06T09:16:25.367Z,95420.50
2023-03-06T09:18:54.771Z,95423.25
2023-03-06T09:21:23.983Z,95421.09
2023-03-06T09:23:52.498Z,95419.00
2023-03-06T09:26:28.010Z,95408.66
2023-03-06T09:29:02.220Z,95420.41
2023-03-06T09:31:32.504Z,95418.84
2023-03-06T09:34:00.832Z,95416.16
2023-03-06T09:36:29.983Z,95411.31
2023-03-06T09:38:58.442Z,95407.72
2023-03-06T09:41:32.620Z,95406.38
2023-03-06T09:44:09.079Z,95407.72
2023-03-06T09:46:48.592Z,95415.88
2023-03-06T09:49:39.215Z,95419.50
2023-03-06T09:52:24.527Z,95413.25
2023-03-06T09:54:56.498Z,95414.88
2023-03-06T09:57:30.342Z,95418.53
2023-03-06T10:00:03.992Z,95412.44
2023-03-06T10:02:38.314Z,95402.03
2023-03-06T10:05:13.915Z,95408.50
2023-03-06T10:07:47.142Z,95406.06
2023-03-06T10:10:21.822Z,95407.06
2023-03-06T10:12:59.394Z,95397.97
2023-03-06T10:15:33.677Z,95379.97
2023-03-06T10:18:03.010Z,95397.50
2023-03-06T10:20:38.337Z,95403.09
2023-03-06T10:23:24.765Z,95388.63
2023-03-06T10:26:00.395Z,95400.38
2023-03-06T10:28:37.434Z,95398.16
2023-03-06T10:31:13.166Z,95398.53
2023-03-06T10:33:53.973Z,95385.31
2023-03-06T10:36:27.349Z,95388.63
2023-03-06T10:38:57.834Z,95387.69
2023-03-06T10:41:28.590Z,95396.34
2023-03-06T10:44:24.133Z,95388.88
2023-03-06T10:46:55.424Z,95385.84
2023-03-06T10:49:31.054Z,95390.97
2023-03-06T10:52:03.494Z,95375.06
2023-03-06T10:54:34.956Z,95386.75
2023-03-06T10:57:23.387Z,95379.38
2023-03-06T10:59:55.698Z,95394.91
2023-03-06T11:02:34.533Z,95390.47
2023-03-06T11:05:04.133Z,95389.66
2023-03-06T11:07:34.641Z,95385.31
2023-03-06T11:10:16.715Z,95390.81
2023-03-06T11:12:58.218Z,95394.22
2023-03-06T11:15:28.875Z,95391.56
2023-03-06T11:18:01.912Z,95397.63
2023-03-06T11:20:50.078Z,95389.59
2023-03-06T11:23:22.925Z,95359.94
2023-03-06T11:25:57.207Z,95383.66
2023-03-06T11:28:30.266Z,95276.22
2023-03-06T11:31:07.387Z,95378.28
2023-03-06T11:33:41.531Z,95311.28
2023-03-06T11:36:17.565Z,95376.09
2023-03-06T11:38:50.214Z,95366.84
2023-03-06T11:41:27.790Z,95354.38
2023-03-06T11:44:02.717Z,95362.53
2023-03-06T11:46:40.103Z,95367.22
2023-03-06T11:49:17.821Z,95354.28
2023-03-06T11:51:52.510Z,95353.59
2023-03-06T11:54:22.218Z,95363.84
2023-03-06T11:56:57.168Z,95321.47
2023-03-06T11:59:43.481Z,95347.84
2023-03-06T12:02:23.247Z,95349.72
2023-03-06T12:05:02.594Z,95349.72
2023-03-06T12:07:34.073Z,95343.44
2023-03-06T12:10:16.042Z,95331.06
2023-03-06T12:13:15.211Z,95340.66
2023-03-06T12:16:02.739Z,95338.19
2023-03-06T12:18:41.310Z,95279.47
2023-03-06T12:21:21.638Z,95331.06
2023-03-06T12:24:04.627Z,95309.13
2023-03-06T12:26:49.076Z,95310.88
2023-03-06T12:29:29.369Z,95331.56
2023-03-06T12:32:15.209Z,95342.50
2023-03-06T12:35:15.021Z,95327.94
2023-03-06T12:37:55.025Z,95292.22
2023-03-06T12:40:46.661Z,95322.91
2023-03-06T12:43:43.424Z,95323.50
2023-03-06T12:46:15.966Z,95312.28
2023-03-06T12:48:49.204Z,95317.41
2023-03-06T12:51:22.048Z,95310.66
2023-03-06T12:53:52.517Z,95320.25
2023-03-06T12:56:22.166Z,95265.63
2023-03-06T12:58:53.556Z,95308.06
2023-03-06T13:01:52.664Z,95310.66
2023-03-06T13:04:36.736Z,95319.63
2023-03-06T13:07:23.074Z,95312.88
2023-03-06T13:10:08.863Z,95313.44
2023-03-06T13:12:51.136Z,95312.88
2023-03-06T13:15:40.760Z,95313.97
2023-03-06T13:18:56.937Z,95311.38
2023-03-06T13:21:48.619Z,95309.78
2023-03-06T13:24:23.552Z,95291.19
2023-03-06T13:27:00.142Z,95300.63
2023-03-06T13:30:22.136Z,95295.72
2023-03-06T13:32:53.215Z,95299.81
2023-03-06T13:35:52.443Z,95292.97
2023-03-06T13:38:36.088Z,95294.44
2023-03-06T13:41:38.498Z,95298.31
2023-03-06T13:44:45.960Z,95286.81
2023-03-06T13:47:39.726Z,95291.59
2023-03-06T13:50:33.698Z,95288.53
2023-03-06T13:53:41.788Z,95295.41
2023-03-06T13:56:26.482Z,95295.44
2023-03-06T13:59:18.346Z,95293.75
2023-03-06T14:01:57.505Z,95300.19
2023-03-06T14:04:40.358Z,95294.91
2023-03-06T14:07:21.096Z,95300.53
2023-03-06T14:10:01.114Z,95295.03
2023-03-06T14:12:34.810Z,95297.06
2023-03-06T14:15:18.229Z,95296.31
2023-03-06T14:17:55.548Z,95280.13
2023-03-06T14:20:33.067Z,95286.91
2023-03-06T14:23:24.101Z,95288.22
2023-03-06T14:25:58.073Z,95267.72
2023-03-06T14:28:29.552Z,95275.22
2023-03-06T14:31:01.171Z,95276.03
2023-03-06T14:33:38.258Z,95266.13
2023-03-06T14:36:10.873Z,95274.84
2023-03-06T14:38:46.845Z,95254.97
2023-03-06T14:41:24.389Z,95260.09
2023-03-06T14:43:53.965Z,95264.41
2023-03-06T14:46:24.274Z,95261.91
2023-03-06T14:48:54.548Z,95263.59
2023-03-06T14:51:25.283Z,95272.06
2023-03-06T14:53:55.650Z,95275.72
2023-03-06T14:56:26.972Z,95266.91
2023-03-06T14:58:58.921Z,95281.47
2023-03-06T15:01:34.612Z,95280.13
2023-03-06T15:04:07.086Z,95280.53
2023-03-06T15:06:39.896Z,95295.88
2023-03-06T15:09:16.420Z,95299.75
2023-03-06T15:11:57.099Z,95296.25
2023-03-06T15:14:36.153Z,95305.16
2023-03-06T15:17:25.464Z,95304.91
2023-03-06T15:19:55.568Z,95299.22
2023-03-06T15:22:28.672Z,95302.34
2023-03-06T15:25:18.688Z,95296.75
2023-03-06T15:27:51.498Z,95301.56
2023-03-06T15:30:28.602Z,95319.78
2023-03-06T15:33:24.186Z,95321.88
2023-03-06T15:35:55.266Z,95315.91
2023-03-06T15:38:27.446Z,95318.25
2023-03-06T15:40:58.301Z,95310.19
2023-03-06T15:43:27.276Z,95301.66
2023-03-06T15:46:00.294Z,95314.13
2023-03-06T15:48:30.629Z,95310.88
2023-03-06T15:51:00.324Z,95313.19
2023-03-06T15:53:29.372Z,95311.22
2023-03-06T15:56:00.648Z,95300.00
2023-03-06T15:58:31.916Z,95304.56
2023-03-06T16:01:00.486Z,95301.88
2023-03-06T16:03:30.679Z,95301.53
2023-03-06T16:05:59.136Z,95305.16
2023-03-06T16:08:28.877Z,95297.78
2023-03-06T16:10:57.257Z,95311.28
2023-03-06T16:13:28.192Z,95301.72
2023-03-06T16:15:56.901Z,95306.25
2023-03-06T16:18:25.253Z,95310.47
2023-03-06T16:23:41.673Z,95304.38
2023-03-06T16:26:21.339Z,95309.13
2023-03-06T16:28:49.674Z,95308.06
2023-03-06T16:31:18.381Z,95311.00
2023-03-06T16:33:46.803Z,95304.81
2023-03-06T16:36:21.881Z,95302.13
2023-03-06T16:38:50.553Z,95302.38
2023-03-06T16:41:21.420Z,95297.34
2023-03-06T16:43:50.428Z,95304.56
2023-03-06T16:46:22.233Z,95300.09
2023-03-06T16:48:50.672Z,95303.84
2023-03-06T16:51:24.471Z,95311.88
2023-03-06T16:53:52.781Z,95294.59
2023-03-06T16:56:21.557Z,95316.53
2023-03-06T16:58:50.320Z,95302.56
2023-03-06T17:01:20.651Z,95306.63
2023-03-06T17:03:49.567Z,95306.19
2023-03-06T17:06:21.381Z,95300.03
2023-03-06T17:08:51.807Z,95301.06
2023-03-06T17:11:21.331Z,95307.69
2023-03-06T17:13:50.182Z,95315.28
2023-03-06T17:16:18.617Z,95322.03
2023-03-06T17:18:47.940Z,95317.16
2023-03-06T17:21:16.542Z,95324.81
2023-03-06T17:23:46.394Z,95318.19
2023-03-06T17:26:18.186Z,95331.59
2023-03-06T17:28:47.391Z,95332.03
2023-03-06T17:31:18.336Z,95336.00
2023-03-06T17:33:47.272Z,95330.03
2023-03-06T17:36:16.904Z,95338.28
2023-03-06T17:38:48.288Z,95339.56
2023-03-06T17:41:16.634Z,95331.06
2023-03-06T17:43:45.360Z,95343.44
2023-03-06T17:46:14.092Z,95343.88
2023-03-06T17:48:43.743Z,95340.16
2023-03-06T17:51:12.766Z,95340.16
2023-03-06T17:53:42.060Z,95342.25
2023-03-06T17:56:14.295Z,95340.63
2023-03-06T17:58:43.650Z,95340.47
2023-03-06T18:01:13.594Z,95345.25
2023-03-06T18:03:44.876Z,95342.81
2023-03-06T18:06:14.880Z,95345.84
2023-03-06T18:08:43.539Z,95339.44
2023-03-06T18:11:13.734Z,95347.63
2023-03-06T18:13:46.751Z,95350.06
2023-03-06T18:16:17.390Z,95353.78
2023-03-06T18:18:46.641Z,95346.81
2023-03-06T18:21:16.454Z,95354.28
2023-03-06T18:23:44.836Z,95347.88
2023-03-06T18:26:16.578Z,95356.97
2023-03-06T18:28:46.560Z,95354.16
2023-03-06T18:31:17.423Z,95359.88
2023-03-06T18:33:45.780Z,95357.22
2023-03-06T18:36:15.082Z,95359.06
2023-03-06T18:38:46.075Z,95347.63
2023-03-06T18:41:16.133Z,95358.50
2023-03-06T18:43:45.049Z,95362.41
2023-03-06T18:46:13.408Z,95357.06
2023-03-06T18:48:42.263Z,95362.88
2023-03-06T18:51:13.941Z,95357.53
2023-03-06T18:53:43.313Z,95356.72
2023-03-06T18:56:17.686Z,95359.00
2023-03-06T18:58:47.136Z,95362.50
2023-03-06T19:01:15.645Z,95368.66
2023-03-06T19:03:44.542Z,95361.69
2023-03-06T19:06:16.413Z,95363.53
2023-03-06T19:08:45.765Z,95363.31
2023-03-06T19:11:17.436Z,95363.53
2023-03-06T19:13:46.886Z,95366.00
2023-03-06T19:16:20.263Z,95364.97
2023-03-06T19:18:48.660Z,95370.69
2023-03-06T19:21:19.289Z,95363.13
2023-03-06T19:23:48.791Z,95358.56
2023-03-06T19:26:19.624Z,95357.75
2023-03-06T19:28:50.177Z,95355.88
2023-03-06T19:31:20.682Z,95368.59
2023-03-06T19:33:50.368Z,95370.22
2023-03-06T19:36:19.001Z,95362.41
2023-03-06T19:38:50.338Z,95362.06
2023-03-06T19:41:20.053Z,95368.66
2023-03-06T19:43:52.630Z,95371.59
2023-03-06T19:46:21.202Z,95365.63
2023-03-06T19:48:54.905Z,95368.16
2023-03-06T19:51:24.036Z,95369.44
2023-03-06T19:53:52.803Z,95376.91
2023-03-06T19:56:26.084Z,95365.94
2023-03-06T19:58:55.286Z,95364.31
2023-03-06T20:01:26.746Z,95359.28
2023-03-06T20:03:58.548Z,95365.78
2023-03-06T20:06:29.865Z,95367.00
2023-03-06T20:08:59.467Z,95372.34
2023-03-06T20:11:30.953Z,95357.91
2023-03-06T20:14:01.416Z,95365.94
2023-03-06T20:16:31.811Z,95361.19
2023-03-06T20:19:02.156Z,95361.19
2023-03-06T20:21:34.108Z,95364.91
2023-03-06T20:24:03.031Z,95363.84
2023-03-06T20:26:34.501Z,95363.84
2023-03-06T20:29:03.975Z,95360.13
2023-03-06T20:31:32.338Z,95366.06
2023-03-06T20:34:01.332Z,95366.06
2023-03-06T20:36:31.650Z,95369.59
2023-03-06T20:39:02.060Z,95373.28
2023-03-06T20:41:32.949Z,95366.31
2023-03-06T20:44:03.535Z,95364.66
2023-03-06T20:46:32.570Z,95369.59
2023-03-06T20:49:01.010Z,95365.88
2023-03-06T20:51:31.662Z,95367.50
2023-03-06T20:54:02.287Z,95369.38
2023-03-06T20:56:35.140Z,95356.56
2023-03-06T20:59:04.618Z,95350.38
2023-03-06T21:01:34.919Z,95364.59
2023-03-06T21:04:05.613Z,95359.22
2023-03-06T21:06:34.428Z,95358.41
2023-03-06T21:09:04.854Z,95364.59
2023-03-06T21:11:35.066Z,95362.16
2023-03-06T21:14:03.682Z,95359.91
2023-03-06T21:16:33.157Z,95362.97
2023-03-06T21:19:02.401Z,95364.81
2023-03-06T21:21:33.407Z,95352.09
2023-03-06T21:24:02.568Z,95353.59
2023-03-06T21:26:33.676Z,95352.41
2023-03-06T21:29:04.981Z,95349.50
2023-03-06T21:31:34.361Z,95356.88
2023-03-06T21:34:05.307Z,95352.56
2023-03-06T21:36:35.385Z,95342.72
2023-03-06T21:39:06.610Z,95345.56
2023-03-06T21:41:35.809Z,95345.34
2023-03-06T21:44:06.668Z,95346.97
2023-03-06T21:46:36.441Z,95345.34
2023-03-06T21:49:06.069Z,95344.28
2023-03-06T21:51:35.012Z,95346.50
2023-03-06T21:54:04.176Z,95347.56
2023-03-06T21:56:33.811Z,95347.78
2023-03-06T21:59:02.536Z,95339.16
2023-03-06T22:01:33.163Z,95344.75
2023-03-06T22:04:01.596Z,95341.69
2023-03-06T22:06:32.464Z,95344.94
2023-03-06T22:09:01.288Z,95348.44
2023-03-06T22:11:34.621Z,95342.97
2023-03-06T22:14:03.126Z,95335.97
2023-03-06T22:16:34.318Z,95333.88
2023-03-06T22:19:02.704Z,95341.69
2023-03-06T22:21:32.018Z,95327.25
2023-03-06T22:24:00.682Z,95337.72
2023-03-06T22:26:30.471Z,95329.50
2023-03-06T22:28:58.836Z,95330.53
2023-03-06T22:31:29.020Z,95326.19
2023-03-06T22:34:01.583Z,95331.34
2023-03-06T22:36:31.543Z,95331.78
2023-03-06T22:39:03.408Z,95249.59
2023-03-06T22:41:32.244Z,95312.31
2023-03-06T22:44:03.239Z,95319.22
2023-03-06T22:46:32.992Z,95327.25
2023-03-06T22:49:03.284Z,95312.88
2023-03-06T22:51:31.800Z,95303.53
2023-03-06T22:54:00.669Z,95305.53
2023-03-06T22:56:29.220Z,95300.63
2023-03-06T22:58:58.578Z,95298.19
2023-03-06T23:01:28.919Z,95298.13
2023-03-06T23:03:59.344Z,95293.44
2023-03-06T23:06:31.139Z,95281.84
2023-03-06T23:09:01.284Z,95296.84
2023-03-06T23:11:30.653Z,95282.72
2023-03-06T23:14:20.089Z,95297.84
2023-03-06T23:17:06.979Z,95289.34
2023-03-06T23:19:54.664Z,95291.22
2023-03-06T23:22:42.901Z,95293.66
2023-03-06T23:25:29.960Z,95294.13
2023-03-06T23:27:59.043Z,95294.69
2023-03-06T23:30:27.456Z,95293.22
2023-03-06T23:32:56.730Z,95289.03
2023-03-06T23:35:25.072Z,95290.25
2023-03-06T23:37:55.406Z,95281.59
2023-03-06T23:40:24.115Z,95282.88
2023-03-06T23:42:52.872Z,95291.50
2023-03-06T23:45:21.899Z,95288.81
2023-03-06T23:47:50.692Z,95290.84
2023-03-06T23:50:19.272Z,95288.16
2023-03-06T23:52:47.656Z,95281.53
2023-03-06T23:55:18.464Z,95281.91
2023-03-06T23:57:47.678Z,95291.34
